Nearby METAR Reports

 

CYUL - Montreal/Dorval, Quebec, Canada
Distance from station: ENE 6km
Updated: 07/19/2018 21:00 EDT
Few Clouds
Few Clouds
 Wind from SW
Wind: SW 11 km/h
Temperature: 24°C
Dew Point: 15°C
Humidity: 57%
Barometer: 1017.3 hPa
Clouds: Few Clouds
Visibility: 48 km
Cloud details: Few Clouds 7620 m
2018/07/20 01:00 CYUL 200100Z 23006KT 30SM FEW250 24/15 A3004 RMK CI2 SLP173 DENSITY ALT 1100FT
CWVQ - Ste Anne De Bell, Quebec, Canada
Distance from station: WSW 10km
Updated: 07/19/2018 21:00 EDT

 Wind from SSW
Wind: SSW 6 km/h
Temperature: 24°C
Dew Point: 12°C
Humidity: 47%
2018/07/20 01:00 CWVQ 200100Z AUTO 21003KT 24/12 RMK AO1 SLP173 T02360123 53006
 
CWTA - Mc Tavish (aut), Quebec, Canada
Distance from station: ENE 18km
Updated: 07/19/2018 21:00 EDT

 Wind from NW
Wind: NW 2 km/h
Temperature: 22°C
Dew Point: 12°C
Humidity: 53%
2018/07/20 01:00 CWTA 200100Z AUTO 31001KT 22/12 RMK AO1 SLP175 T02200115 53006
CYMX - Montreal/Mirabel, Quebec, Canada
Distance from station: NW 29km
Updated: 07/19/2018 21:00 EDT
Few Clouds
Few Clouds
 Wind from SSW
Wind: SSW 9 km/h
Temperature: 20°C
Dew Point: 14°C
Humidity: 69%
Barometer: 1017.6 hPa
Clouds: Few Clouds
Visibility: 40 km
Cloud details: Few Clouds 7620 m
2018/07/20 01:00 CYMX 200100Z 20005KT 25SM FEW250 20/14 A3005 RMK CI2 SLP178 DENSITY ALT 800FT
 
CYHU - Saint Hubert Arp, Quebec, Canada
Distance from station: ENE 31km
Updated: 07/19/2018 21:00 EDT
Clear
Clear
 Wind from SSW
Wind: SSW 13 km/h
Temperature: 24°C
Dew Point: 12°C
Humidity: 47%
Barometer: 1017.3 hPa
Clouds: Clear
Visibility: 14 km
2018/07/20 01:00 CYHU 200100Z AUTO 21007KT 9SM CLR 24/12 A3004 RMK SLP173 DENSITY ALT 900FT
CWIT - St Clothilde (a, Quebec, Canada
Distance from station: SSE 33km
Updated: 07/19/2018 21:00 EDT

 Wind from calm
Wind: Calm
Temperature: 19°C
Dew Point: 15°C
Humidity: 78%
2018/07/20 01:00 CWIT 200100Z AUTO 00000KT 19/15 RMK AO1 SLP176 T01890148 53006
 
CWIZ - L'acadie, Quebec, Canada
Distance from station: ESE 41km
Updated: 07/19/2018 21:00 EDT

 Wind from SSE
Wind: SSE 6 km/h
Temperature: 19°C
Dew Point: 14°C
Humidity: 73%
2018/07/20 01:00 CWIZ 200100Z AUTO 15003KT 19/14 RMK AO1 T01940140
CWHM - Varennes, Quebec, Canada
Distance from station: NE 45km
Updated: 10/25/2016 10:00 EDT
NOT Current

 Wind from W
Wind: W 19 km/h, Gust: 28 km/h
Temperature: 4°C
Wind Chill: 0°C
Dew Point: -2°C
Humidity: 65%
2016/10/25 14:00 CWHM 251400Z AUTO 28010G15KT 04/M02 RMK AO1 PK WND 28018/1302 T00391017
 
CWEW - L'assomption, Quebec, Canada
Distance from station: NE 50km
Updated: 07/19/2018 21:00 EDT

 Wind from SSW
Wind: SSW 6 km/h
Temperature: 22°C
Dew Point: 14°C
Humidity: 61%
2018/07/20 01:00 CWEW 200100Z AUTO 21003KT 22/14 RMK AO1 3PAST HR 3007 SLP176 P0001 T02150136 50003
CWBZ - St Anicet, Quebec, Canada
Distance from station: SW 52km
Updated: 07/19/2018 21:00 EDT

 Wind from W
Wind: W 4 km/h
Temperature: 19°C
Dew Point: 15°C
Humidity: 78%
2018/07/20 01:00 CWBZ 200100Z AUTO 26002KT 19/15 RMK AO1 SLP172 T01870150 53007
 
KFSO - Highgate, Vermont, USA
Distance from station: SE 79km
Updated: 07/19/2018 21:15 EDT
Clear
Clear
 Wind from calm
Wind: Calm
Temperature: 18°C
Dew Point: 16°C
Humidity: 88%
Barometer: 1018.6 hPa
Clouds: Clear
Visibility: 16 km
2018/07/20 01:15 KFSO 200115Z AUTO 00000KT 10SM CLR 18/16 A3008 RMK AO2 T01820161
CMGB - Granby, Quebec, Canada
Distance from station: E 81km
Updated: 07/19/2018 21:00 EDT

 Wind from calm
Wind: Calm
Temperature: 19°C
Dew Point: 14°C
Humidity: 73%
2018/07/20 01:00 CMGB 200100Z AUTO 00000KT 19/14 RMK AO1 SLP178 T01920137 53006
 
CWJT - St Jovite (autob, Quebec, Canada
Distance from station: NW 88km
Updated: 07/19/2018 21:00 EDT

 Wind from NE
Wind: NE 2 km/h
Temperature: 18°C
Dew Point: 14°C
Humidity: 78%
2018/07/20 01:00 CWJT 200100Z AUTO 05001KT 18/14 RMK AO1 SLP173 T01830139 53007
CWFQ - Frelighsburg, Quebec, Canada
Distance from station: ESE 90km
Updated: 07/19/2018 21:00 EDT

 Wind from S
Wind: S 6 km/h
Temperature: 20°C
Dew Point: 10°C
Humidity: 53%
2018/07/20 01:00 CWFQ 200100Z AUTO 17003KT 20/10 RMK AO1 SLP184 T01950103 53008
 
KPBG - Plattsburgh Afb, New York, USA
Distance from station: SSE 93km
Updated: 07/19/2018 20:53 EDT
Clear
Clear
 Wind from calm
Wind: Calm
Temperature: 19°C
Dew Point: 13°C
Humidity: 68%
Barometer: 1017.9 hPa
Clouds: Clear
Visibility: 16 km
2018/07/20 00:53 KPBG 200053Z AUTO 00000KT 10SM CLR 19/13 A3006 RMK AO2 SLP178 T01940128
KMSS - Massena, New York, USA
Distance from station: SW 100km
Updated: 07/19/2018 20:53 EDT
Clear
Clear
 Wind from SW
Wind: SW 7 km/h
Temperature: 22°C
Dew Point: 13°C
Humidity: 57%
Barometer: 1018.3 hPa
Clouds: Clear
Visibility: 16 km
2018/07/20 00:53 KMSS 200053Z AUTO 22004KT 10SM CLR 22/13 A3007 RMK AO2 SLP181 T02170128
 
CWBS - Lac St Pierre (a, Quebec, Canada
Distance from station: NE 106km
Updated: 07/19/2018 21:00 EDT

 Wind from S
Wind: S 26 km/h
Temperature: 24°C
Dew Point: 15°C
Humidity: 57%
2018/07/20 01:00 CWBS 200100Z AUTO 19014KT 24/15 RMK AO1 T02380150
KBTV - Burlington, Vermont, USA
Distance from station: SSE 121km
Updated: 07/19/2018 20:54 EDT
Few Clouds
Few Clouds
 Wind from calm
Wind: Calm
Temperature: 25°C
Dew Point: 11°C
Humidity: 42%
Barometer: 1017.9 hPa
Clouds: Few Clouds
Visibility: 16 km
Cloud details: Few Clouds 6096 m
2018/07/20 00:54 KBTV 200054Z 00000KT 10SM FEW200 25/11 A3006 RMK AO2 SLP179 T02500111
 
KSLK - Saranac Lake, New York, USA
Distance from station: SSW 121km
Updated: 07/19/2018 20:51 EDT
Clear
Clear
 Wind from calm
Wind: Calm
Temperature: 17°C
Dew Point: 12°C
Humidity: 73%
Barometer: 1019.6 hPa
Clouds: Clear
Visibility: 16 km
2018/07/20 00:51 KSLK 200051Z AUTO 00000KT 10SM CLR 17/12 A3011 RMK AO2 SLP194 T01670122
CWNQ - Nicolet (autob), Quebec, Canada
Distance from station: NE 123km
Updated: 07/19/2018 21:00 EDT

 Wind from S
Wind: S 6 km/h
Temperature: 21°C
Dew Point: 14°C
Humidity: 64%
2018/07/20 01:00 CWNQ 200100Z AUTO 18003KT 21/14 RMK AO1 SLP166 T02110137 53008
 
KMWN - Mount Washington, New Hampshire, USA
Distance from station: SE 237km
Updated: 07/19/2018 20:50 EDT
Few Clouds
Few Clouds
 Wind from WNW
Wind: WNW 28 km/h
Temperature: 9°C
Wind Chill: 6°C
Dew Point: 6°C
Humidity: 82%
Clouds: Few Clouds
Visibility: 160 km
Cloud details: Few Clouds 5486 m
Few Clouds 6096 m
2018/07/20 00:50 KMWN 200050Z 29015KT 100SM FEW180 FEW200 09/06 RMK
CYVR - Vancouver Intl A, British Columbia, Canada
Distance from station: NW 3676km
Updated: 07/19/2018 21:00 EDT
Few Clouds
Few Clouds
 Wind from SSE
Wind: SSE 17 km/h, Gust: 30 km/h
Temperature: 21°C
Dew Point: 11°C
Humidity: 53%
Barometer: 1020 hPa
Clouds: Few Clouds
Visibility: 48 km
Cloud details: Few Clouds 975 m
Few Clouds 1158 m
Few Clouds 2438 m
2018/07/20 01:00 CYVR 200100Z 16009G16KT 30SM FEW032 FEW038 FEW080 21/11 A3012 RMK CU1SC1AC1 AC TR SLP200 DENSITY ALT 500FT